Time;durP1;ratioP1;P1;durP2;ratioP2;P2;SDS_P1;SDS_P2;PMS_P1;PMS_P2;Temp;Humidity;BMP_temperature;BMP_pressure;BME280_temperature;BME280_humidity;BME280_pressure;Samples;Min_cycle;Max_cycle;Signal;HPM_P1;HPM_P2
2022/07/22 00:00:41;;;;;;;7.45;3.83;;;;;;;16.09;100.00;102052.09;5113096;28;20033;-58
2022/07/22 00:03:06;;;;;;;7.60;4.47;;;;;;;16.12;100.00;102054.66;5112896;28;20031;-58
2022/07/22 00:05:31;;;;;;;11.20;4.72;;;;;;;16.10;100.00;102053.84;5112947;28;20035;-58
2022/07/22 00:07:57;;;;;;;8.02;4.78;;;;;;;16.07;100.00;102046.84;5112840;28;20465;-58
2022/07/22 00:10:22;;;;;;;9.20;4.88;;;;;;;16.07;100.00;102046.84;5112816;28;20027;-58
2022/07/22 00:12:47;;;;;;;11.45;4.65;;;;;;;16.07;100.00;102045.97;5112823;28;20036;-58
2022/07/22 00:15:13;;;;;;;9.63;4.78;;;;;;;16.05;100.00;102048.63;5112772;28;20059;-58
2022/07/22 00:17:39;;;;;;;9.60;4.93;;;;;;;16.03;100.00;102053.06;5113092;28;20393;-58
2022/07/22 00:20:06;;;;;;;10.25;5.53;;;;;;;15.99;100.00;102044.31;5112671;28;20044;-58
2022/07/22 00:22:31;;;;;;;10.45;5.47;;;;;;;16.02;100.00;102038.13;5112542;28;20084;-59
2022/07/22 00:24:57;;;;;;;11.52;4.95;;;;;;;16.10;100.00;102040.63;5112358;28;20507;-58
2022/07/22 00:27:22;;;;;;;12.13;5.22;;;;;;;16.11;100.00;102037.94;5112203;28;20036;-58
2022/07/22 00:29:47;;;;;;;11.65;5.47;;;;;;;16.13;100.00;102044.06;5112721;28;20042;-59
2022/07/22 00:32:13;;;;;;;8.32;5.68;;;;;;;16.09;100.00;102038.91;5112506;28;20085;-59
2022/07/22 00:34:38;;;;;;;9.23;5.88;;;;;;;16.13;100.00;102041.44;5112569;28;20038;-58
2022/07/22 00:37:04;;;;;;;11.55;5.63;;;;;;;16.12;100.00;102038.81;5112160;28;20036;-59
2022/07/22 00:39:30;;;;;;;9.45;5.13;;;;;;;16.14;100.00;102047.59;5112446;28;20028;-58
2022/07/22 00:41:56;;;;;;;13.70;6.05;;;;;;;16.09;100.00;102042.41;5112292;28;20035;-58
2022/07/22 00:44:21;;;;;;;10.10;5.85;;;;;;;16.09;100.00;102039.78;5112407;28;20033;-58
2022/07/22 00:46:46;;;;;;;9.30;5.25;;;;;;;16.12;100.00;102038.81;5112401;28;20416;-58
2022/07/22 00:49:12;;;;;;;13.25;5.30;;;;;;;16.08;100.00;102035.38;5112291;28;20036;-59
2022/07/22 00:51:39;;;;;;;13.27;5.57;;;;;;;16.12;100.00;102033.53;5112291;28;20023;-58
2022/07/22 00:54:05;;;;;;;10.57;5.93;;;;;;;16.12;100.00;102036.19;5112097;28;20035;-59
2022/07/22 00:56:30;;;;;;;13.45;5.80;;;;;;;16.08;100.00;102026.59;5112216;28;20548;-58
2022/07/22 00:58:58;;;;;;;13.77;6.10;;;;;;;16.11;100.00;102030.03;5112052;28;20112;-58
2022/07/22 01:01:24;;;;;;;12.25;5.40;;;;;;;16.10;100.00;102027.44;5112162;28;20023;-59
2022/07/22 01:03:49;;;;;;;11.25;5.50;;;;;;;16.03;100.00;102021.38;5112185;28;20031;-58
2022/07/22 01:06:14;;;;;;;12.68;5.80;;;;;;;16.02;100.00;102024.91;5112119;28;20457;-59
2022/07/22 01:08:40;;;;;;;10.60;5.90;;;;;;;15.98;100.00;102016.16;5112017;28;20032;-59
2022/07/22 01:11:18;;;;;;;12.48;6.13;;;;;;;15.99;100.00;102024.97;5094035;28;20134;-58
2022/07/22 01:13:45;;;;;;;16.90;6.55;;;;;;;15.97;100.00;102029.41;5112012;28;20047;-59
2022/07/22 01:16:12;;;;;;;12.77;6.05;;;;;;;15.94;100.00;102025.03;5112122;28;20112;-58
2022/07/22 01:18:38;;;;;;;11.27;6.07;;;;;;;15.99;100.00;102024.97;5111960;28;20031;-58
2022/07/22 01:21:06;;;;;;;13.52;5.78;;;;;;;15.95;100.00;102016.22;5112109;28;20062;-58
2022/07/22 01:23:31;;;;;;;13.98;5.65;;;;;;;16.03;100.00;102021.38;5111655;28;20352;-57
2022/07/22 01:25:57;;;;;;;12.63;5.82;;;;;;;16.04;100.00;102017.84;5111820;28;20031;-58
2022/07/22 01:28:23;;;;;;;11.45;6.18;;;;;;;15.97;100.00;102013.56;5111904;28;20036;-58
2022/07/22 01:30:49;;;;;;;12.52;5.88;;;;;;;15.89;100.00;102016.34;5112029;28;20476;-58
2022/07/22 01:33:16;;;;;;;10.63;5.90;;;;;;;15.82;100.00;102019.09;5111699;28;20058;-58
2022/07/22 01:35:41;;;;;;;11.73;5.60;;;;;;;15.74;100.00;102024.50;5111799;28;20034;-58
2022/07/22 01:38:07;;;;;;;12.98;6.30;;;;;;;15.67;100.00;102020.22;5111974;28;20031;-58
2022/07/22 01:40:33;;;;;;;13.23;6.10;;;;;;;15.61;100.00;102015.03;5111545;28;20138;-58
2022/07/22 01:42:58;;;;;;;12.48;6.25;;;;;;;15.56;100.00;102017.75;5111607;28;20118;-57
2022/07/22 01:45:24;;;;;;;12.35;5.90;;;;;;;15.51;100.00;102023.94;5111832;28;20050;-57
2022/07/22 01:47:49;;;;;;;9.95;6.10;;;;;;;15.30;100.00;102007.53;5111531;28;20537;-58
2022/07/22 01:50:14;;;;;;;11.88;6.00;;;;;;;15.36;100.00;102027.69;5111278;28;20062;-58
2022/07/22 01:52:39;;;;;;;14.40;6.20;;;;;;;15.28;100.00;102025.13;5111584;28;20032;-58
2022/07/22 01:55:06;;;;;;;11.50;5.85;;;;;;;15.23;100.00;102028.75;5111766;28;20035;-59
2022/07/22 01:57:31;;;;;;;10.07;6.18;;;;;;;15.11;100.00;102018.34;5111648;28;20027;-59
2022/07/22 01:59:57;;;;;;;12.85;6.38;;;;;;;15.15;100.00;102030.63;5111498;28;20034;-58
2022/07/22 02:02:22;;;;;;;12.07;5.88;;;;;;;15.07;100.00;102024.56;5111381;28;20028;-59
2022/07/22 02:04:47;;;;;;;10.07;6.32;;;;;;;15.05;100.00;102029.88;5111491;28;20337;-59
2022/07/22 02:07:12;;;;;;;14.15;6.72;;;;;;;15.16;100.00;102022.69;5111314;28;20035;-58
2022/07/22 02:09:38;;;;;;;12.90;6.32;;;;;;;15.20;100.00;102019.13;5111366;28;20043;-58
2022/07/22 02:12:03;;;;;;;13.23;6.22;;;;;;;15.30;100.00;102025.13;5111343;28;20114;-63
2022/07/22 02:14:28;;;;;;;13.38;6.68;;;;;;;15.36;100.00;102021.53;5103535;28;20363;-58
2022/07/22 02:16:53;;;;;;;10.68;5.82;;;;;;;15.43;100.00;102017.91;5105752;28;20074;-58
2022/07/22 02:19:19;;;;;;;9.45;6.22;;;;;;;15.44;100.00;102004.69;5112350;28;20074;-59
2022/07/22 02:21:44;;;;;;;10.80;6.30;;;;;;;15.51;100.00;102021.31;5096487;28;20051;-58
2022/07/22 02:24:09;;;;;;;11.25;6.60;;;;;;;15.53;100.00;102015.13;5103099;28;20447;-58
2022/07/22 02:26:35;;;;;;;11.52;6.32;;;;;;;15.52;100.00;102010.75;5103007;28;20081;-60
2022/07/22 02:29:00;;;;;;;17.42;6.47;;;;;;;15.57;100.00;102013.34;5115046;28;20039;-58
2022/07/22 02:31:25;;;;;;;14.00;6.55;;;;;;;15.57;100.00;102014.22;5114752;28;20106;-59
2022/07/22 02:33:51;;;;;;;14.20;6.55;;;;;;;15.56;100.00;102016.88;5108233;28;20071;-59
2022/07/22 02:36:17;;;;;;;9.63;6.05;;;;;;;15.60;100.00;102018.56;5114395;28;20073;-59
2022/07/22 02:38:42;;;;;;;11.57;7.00;;;;;;;15.57;100.00;102018.63;5102629;28;20036;-58
2022/07/22 02:41:07;;;;;;;16.63;7.50;;;;;;;15.56;100.00;102015.13;5094041;28;20032;-58
2022/07/22 02:43:33;;;;;;;12.65;6.63;;;;;;;15.56;100.00;102016.88;5094222;28;20351;-58
2022/07/22 02:45:58;;;;;;;12.93;6.88;;;;;;;15.57;100.00;102006.31;5094363;28;20079;-58
2022/07/22 02:48:23;;;;;;;14.43;6.93;;;;;;;15.61;100.00;102007.09;5094098;28;20371;-58
2022/07/22 02:50:49;;;;;;;13.52;6.97;;;;;;;15.61;100.00;102001.81;5094019;28;20078;-58
2022/07/22 02:53:14;;;;;;;18.65;7.65;;;;;;;15.65;100.00;102000.88;5094085;28;20239;-58
2022/07/22 02:55:40;;;;;;;15.57;7.45;;;;;;;15.66;100.00;102000.88;5093944;28;20032;-58
2022/07/22 02:58:09;;;;;;;15.50;7.47;;;;;;;15.66;100.00;102003.50;5093861;28;20051;-59
2022/07/22 03:00:37;;;;;;;13.93;7.18;;;;;;;15.67;100.00;102004.38;5094147;28;20035;-58
2022/07/22 03:03:03;;;;;;;14.50;7.28;;;;;;;15.71;100.00;102000.81;5093791;28;20032;-59
2022/07/22 03:05:28;;;;;;;13.10;6.68;;;;;;;15.74;100.00;101994.59;5093833;28;20100;-58
2022/07/22 03:07:53;;;;;;;13.75;7.03;;;;;;;15.68;100.00;101989.41;5093338;28;20063;-59
2022/07/22 03:10:19;;;;;;;13.73;7.30;;;;;;;15.68;100.00;101989.41;5093810;28;20051;-59
2022/07/22 03:12:44;;;;;;;13.80;7.20;;;;;;;15.69;100.00;101996.44;5093782;28;20301;-58
2022/07/22 03:15:09;;;;;;;13.35;6.88;;;;;;;15.55;100.00;101971.16;5093779;28;20397;-58
2022/07/22 03:17:37;;;;;;;12.27;6.93;;;;;;;15.66;100.00;101989.44;5093497;28;20032;-59
2022/07/22 03:20:04;;;;;;;12.98;7.32;;;;;;;15.66;100.00;101987.66;5093454;28;20046;-58
2022/07/22 03:22:29;;;;;;;12.85;7.13;;;;;;;15.64;100.00;101991.22;5093054;28;20064;-58
2022/07/22 03:24:55;;;;;;;12.90;7.25;;;;;;;15.65;100.00;101987.69;5093278;28;20434;-59
2022/07/22 03:27:20;;;;;;;14.38;6.97;;;;;;;15.63;100.00;101993.00;5092522;28;20032;-59
2022/07/22 03:29:45;;;;;;;16.77;7.33;;;;;;;15.64;100.00;101988.59;5093423;28;20036;-58
2022/07/22 03:32:10;;;;;;;13.73;6.93;;;;;;;15.64;100.00;101994.75;5093056;28;20294;-59
2022/07/22 03:34:36;;;;;;;17.52;6.93;;;;;;;15.63;100.00;101987.72;5093261;28;20458;-59
2022/07/22 03:37:02;;;;;;;13.73;7.28;;;;;;;15.58;100.00;101978.16;5093194;28;20040;-59
2022/07/22 03:39:27;;;;;;;11.98;7.10;;;;;;;15.59;100.00;101985.13;5093186;28;20074;-59
2022/07/22 03:41:53;;;;;;;13.95;7.20;;;;;;;15.55;100.00;101981.72;5093130;28;20447;-59
2022/07/22 03:44:18;;;;;;;14.55;7.38;;;;;;;15.56;100.00;101993.13;5092996;28;20439;-59
2022/07/22 03:46:43;;;;;;;14.95;7.20;;;;;;;15.50;100.00;101986.13;5092921;28;20035;-59
2022/07/22 03:49:08;;;;;;;15.77;7.57;;;;;;;15.55;100.00;101994.00;5092938;28;20032;-59
2022/07/22 03:51:34;;;;;;;16.77;7.10;;;;;;;15.46;100.00;101973.88;5092900;28;20044;-59
2022/07/22 03:53:59;;;;;;;17.25;7.90;;;;;;;15.58;100.00;102002.78;5092888;28;20024;-59
2022/07/22 03:56:24;;;;;;;12.95;7.00;;;;;;;15.49;100.00;101996.72;5092946;28;20092;-59
2022/07/22 03:58:49;;;;;;;12.30;6.82;;;;;;;15.50;100.00;101996.69;5092358;28;20556;-58
2022/07/22 04:01:15;;;;;;;14.85;7.10;;;;;;;15.55;100.00;102005.44;5092709;28;20051;-59
2022/07/22 04:03:40;;;;;;;11.32;6.75;;;;;;;15.59;100.00;101993.06;5092671;28;20028;-58
2022/07/22 04:06:06;;;;;;;13.00;6.80;;;;;;;15.60;100.00;102008.00;5092525;28;20042;-59
2022/07/22 04:08:31;;;;;;;13.55;7.22;;;;;;;15.60;100.00;102008.00;5092717;28;20036;-59
2022/07/22 04:10:57;;;;;;;14.07;6.50;;;;;;;15.61;100.00;102010.63;5092715;28;20050;-59
2022/07/22 04:13:22;;;;;;;13.98;7.18;;;;;;;15.65;100.00;102004.41;5092644;28;20036;-59
2022/07/22 04:15:47;;;;;;;13.98;6.78;;;;;;;15.64;100.00;102007.94;5092507;28;20036;-59
2022/07/22 04:18:13;;;;;;;15.77;7.32;;;;;;;15.68;100.00;102005.25;5092531;28;20035;-59
2022/07/22 04:20:38;;;;;;;12.95;7.35;;;;;;;15.73;100.00;102012.22;5092402;28;20386;-59
2022/07/22 04:23:03;;;;;;;12.73;7.07;;;;;;;15.75;100.00;102007.78;5092297;28;20032;-59
2022/07/22 04:25:29;;;;;;;15.43;7.20;;;;;;;15.76;100.00;102006.00;5092423;28;20379;-58
2022/07/22 04:27:54;;;;;;;14.73;6.78;;;;;;;15.76;100.00;102006.00;5092335;28;20068;-58
2022/07/22 04:30:19;;;;;;;13.57;7.32;;;;;;;15.82;100.00;102005.88;5092100;28;20048;-58
2022/07/22 04:32:45;;;;;;;10.75;6.75;;;;;;;15.78;100.00;102002.41;5092125;28;20044;-58
2022/07/22 04:35:10;;;;;;;12.70;6.72;;;;;;;15.83;100.00;102000.59;5092123;28;20035;-59
2022/07/22 04:37:35;;;;;;;12.77;7.30;;;;;;;15.84;100.00;101991.78;5092170;28;20042;-59
2022/07/22 04:40:01;;;;;;;13.45;7.18;;;;;;;15.87;100.00;101988.22;5091828;28;20040;-57
2022/07/22 04:42:26;;;;;;;14.50;7.15;;;;;;;15.81;100.00;101981.25;5091577;28;20036;-58
2022/07/22 04:44:51;;;;;;;17.63;7.60;;;;;;;15.89;100.00;101991.72;5091836;28;20052;-57
2022/07/22 04:47:17;;;;;;;14.75;7.05;;;;;;;15.96;100.00;101998.59;5091686;28;20394;-57
2022/07/22 04:49:42;;;;;;;16.10;7.05;;;;;;;15.98;100.00;102000.31;5092066;28;20047;-58
2022/07/22 04:52:08;;;;;;;13.45;7.50;;;;;;;15.97;100.00;101998.59;5091799;28;20376;-58
2022/07/22 04:54:35;;;;;;;16.88;7.72;;;;;;;15.95;100.00;101986.31;5091921;28;20526;-58
2022/07/22 04:57:00;;;;;;;15.10;7.40;;;;;;;15.95;100.00;101988.94;5091873;28;20036;-58
2022/07/22 04:59:26;;;;;;;14.10;7.57;;;;;;;15.96;100.00;101985.41;5091611;28;20458;-58
2022/07/22 05:01:51;;;;;;;12.23;7.10;;;;;;;16.05;100.00;101987.03;5091633;28;20031;-58
2022/07/22 05:04:16;;;;;;;13.70;6.82;;;;;;;16.10;100.00;101986.06;5091141;28;20420;-57
2022/07/22 05:06:41;;;;;;;14.88;7.45;;;;;;;16.13;100.00;101985.09;5091600;28;20032;-57
2022/07/22 05:09:08;;;;;;;19.60;7.80;;;;;;;16.18;100.00;101989.41;5091600;28;20028;-57
2022/07/22 05:11:33;;;;;;;15.73;8.38;;;;;;;16.22;100.00;101983.19;5091667;28;20019;-58
2022/07/22 05:13:58;;;;;;;17.63;7.57;;;;;;;16.29;100.00;101989.19;5091748;28;20084;-57
2022/07/22 05:16:24;;;;;;;17.58;8.50;;;;;;;16.37;100.00;101979.38;5091465;28;20130;-58
2022/07/22 05:18:49;;;;;;;17.50;8.88;;;;;;;16.35;100.00;101986.47;5091411;28;20463;-57
2022/07/22 05:21:14;;;;;;;15.60;9.00;;;;;;;16.50;100.00;101991.44;5091603;28;20043;-58
2022/07/22 05:23:39;;;;;;;13.65;8.40;;;;;;;16.56;100.00;101987.81;5091098;28;20149;-58
2022/07/22 05:26:05;;;;;;;16.75;8.45;;;;;;;16.57;100.00;101982.50;5091575;28;20040;-58
2022/07/22 05:28:30;;;;;;;17.50;9.07;;;;;;;16.60;100.00;101989.50;5091628;28;20068;-58
2022/07/22 05:30:56;;;;;;;17.02;8.75;;;;;;;16.55;100.00;101968.44;5091187;28;20046;-57
2022/07/22 05:33:21;;;;;;;18.17;9.23;;;;;;;16.70;100.00;101981.38;5091393;28;20067;-59
2022/07/22 05:35:46;;;;;;;15.35;8.40;;;;;;;16.76;100.00;101983.03;5091470;28;20043;-59
2022/07/22 05:38:11;;;;;;;15.85;8.07;;;;;;;16.74;100.00;101987.47;5091344;28;20439;-60
2022/07/22 05:40:37;;;;;;;17.13;8.57;;;;;;;16.79;100.00;101988.28;5091439;28;20024;-60
2022/07/22 05:43:02;;;;;;;16.20;7.75;;;;;;;16.80;100.00;101994.41;5091382;28;20031;-60
2022/07/22 05:45:27;;;;;;;14.85;8.43;;;;;;;16.80;100.00;101997.91;5090746;28;20051;-60
2022/07/22 05:47:53;;;;;;;16.70;8.75;;;;;;;16.90;100.00;101998.59;5091165;28;20055;-60
2022/07/22 05:50:18;;;;;;;19.45;8.55;;;;;;;16.95;100.00;101991.44;5092768;28;20463;-59
2022/07/22 05:52:43;;;;;;;17.52;8.85;;;;;;;16.94;100.00;101973.84;5095231;28;20111;-60
2022/07/22 05:55:09;;;;;;;15.52;8.25;;;;;;;17.05;100.00;101992.97;5095192;28;20078;-60
2022/07/22 05:57:35;;;;;;;19.13;8.27;;;;;;;16.86;100.00;101999.56;5095366;28;20089;-60
2022/07/22 06:00:00;;;;;;;16.30;8.23;;;;;;;16.89;100.00;101984.50;5095114;28;20403;-60
2022/07/22 06:02:25;;;;;;;17.92;8.90;;;;;;;17.02;100.00;101995.69;5095003;28;20035;-61
2022/07/22 06:04:51;;;;;;;17.20;8.10;;;;;;;17.06;100.00;101992.09;5094887;28;20036;-60
2022/07/22 06:07:17;;;;;;;16.15;7.80;;;;;;;17.17;100.00;101997.13;5094982;28;20358;-59
2022/07/22 06:09:42;;;;;;;17.20;7.03;;;;;;;17.34;98.29;101989.66;5094898;28;20035;-61
2022/07/22 06:12:08;;;;;;;15.73;7.65;;;;;;;17.43;97.98;101988.59;5094785;28;20036;-64
2022/07/22 06:14:33;;;;;;;14.25;7.32;;;;;;;17.49;99.79;101989.31;5094917;28;20032;-58
2022/07/22 06:16:58;;;;;;;13.00;6.88;;;;;;;17.73;98.69;101995.84;5094646;28;20065;-59
2022/07/22 06:19:24;;;;;;;13.95;6.35;;;;;;;17.75;97.05;101999.31;5094705;28;20051;-61
2022/07/22 06:21:50;;;;;;;16.75;6.20;;;;;;;17.78;95.69;102001.91;5094682;28;20028;-61
2022/07/22 06:24:15;;;;;;;14.68;6.13;;;;;;;17.89;95.41;101988.38;5094778;28;20032;-61
2022/07/22 06:26:40;;;;;;;14.88;5.22;;;;;;;18.05;94.31;101987.94;5094950;28;20032;-59
2022/07/22 06:29:05;;;;;;;11.70;4.80;;;;;;;18.67;89.44;101981.88;5094595;28;20032;-61
2022/07/22 06:31:31;;;;;;;10.32;4.93;;;;;;;18.56;86.25;101981.25;5094166;28;20266;-61
2022/07/22 06:33:56;;;;;;;8.20;4.03;;;;;;;18.25;85.54;101992.72;5094373;28;20367;-61
2022/07/22 06:36:21;;;;;;;9.93;4.78;;;;;;;18.05;89.08;101989.72;5094543;28;20111;-61
2022/07/22 06:38:46;;;;;;;10.23;4.85;;;;;;;17.93;89.71;101990.03;5092404;28;20035;-60
2022/07/22 06:41:13;;;;;;;12.40;5.35;;;;;;;17.78;89.95;101990.44;5093688;28;20085;-60
2022/07/22 06:43:38;;;;;;;9.57;4.88;;;;;;;17.77;91.66;101986.03;5094150;28;20062;-60
2022/07/22 06:46:04;;;;;;;12.05;5.35;;;;;;;17.78;90.82;101980.72;5093123;28;20028;-60
2022/07/22 06:48:29;;;;;;;12.90;5.80;;;;;;;17.80;91.58;101983.31;5094009;28;20409;-60
2022/07/22 06:50:54;;;;;;;8.88;5.00;;;;;;;17.82;89.98;101986.81;5093899;28;20344;-60
2022/07/22 06:53:21;;;;;;;9.23;4.38;;;;;;;17.80;89.81;101988.63;5093540;28;20390;-60
2022/07/22 06:55:46;;;;;;;11.68;4.00;;;;;;;17.79;90.01;101979.81;5093784;28;20036;-61
2022/07/22 06:58:11;;;;;;;11.93;4.78;;;;;;;17.98;89.20;101985.50;5094015;28;20050;-60
2022/07/22 07:00:37;;;;;;;8.30;3.45;;;;;;;17.97;85.83;101992.59;5093298;28;20025;-60
2022/07/22 07:03:02;;;;;;;6.63;2.90;;;;;;;17.97;85.15;101989.06;5093818;28;20036;-60
2022/07/22 07:05:28;;;;;;;7.03;3.10;;;;;;;18.09;85.04;101988.72;5093770;28;20787;-60
2022/07/22 07:07:54;;;;;;;8.32;3.30;;;;;;;18.18;85.05;101991.16;5093843;28;20148;-60
2022/07/22 07:10:20;;;;;;;4.68;2.40;;;;;;;18.24;80.65;101985.66;5093843;28;20032;-60
2022/07/22 07:12:45;;;;;;;4.05;2.10;;;;;;;18.13;80.91;101977.16;5093240;28;20383;-62
2022/07/22 07:15:11;;;;;;;7.55;2.17;;;;;;;18.18;79.07;101985.00;5095200;28;20047;-62
2022/07/22 07:17:37;;;;;;;4.72;2.65;;;;;;;18.20;78.76;101972.53;5097021;28;20063;-60
2022/07/22 07:20:03;;;;;;;5.95;2.65;;;;;;;18.14;79.17;101970.94;5106673;28;20455;-61
2022/07/22 07:22:29;;;;;;;4.07;2.30;;;;;;;18.20;77.81;101973.41;5093223;28;20032;-61
2022/07/22 07:24:54;;;;;;;4.63;1.60;;;;;;;18.26;74.57;101973.25;5097024;28;20360;-61
2022/07/22 07:27:19;;;;;;;5.45;1.75;;;;;;;18.29;74.28;101975.81;5105345;28;20093;-61
2022/07/22 07:29:45;;;;;;;3.50;1.60;;;;;;;18.40;76.01;101968.44;5093081;28;20051;-61
2022/07/22 07:32:11;;;;;;;4.80;1.60;;;;;;;18.64;75.44;101974.00;5093077;28;20757;-59
2022/07/22 07:34:36;;;;;;;8.55;3.15;;;;;;;18.94;73.96;101975.75;5093072;28;20113;-59
2022/07/22 07:37:01;;;;;;;3.08;2.40;;;;;;;19.08;69.83;101980.63;5093011;28;20046;-60
2022/07/22 07:39:27;;;;;;;4.85;2.30;;;;;;;19.15;71.14;101976.00;5093001;28;20047;-60
2022/07/22 07:41:52;;;;;;;4.88;2.22;;;;;;;19.24;71.91;101971.28;5092942;28;20705;-59
2022/07/22 07:44:18;;;;;;;3.65;2.35;;;;;;;19.35;72.96;101966.50;5093191;28;20032;-59
2022/07/22 07:46:43;;;;;;;5.53;1.77;;;;;;;19.39;70.02;101967.28;5092560;28;20048;-59
2022/07/22 07:49:08;;;;;;;3.20;1.40;;;;;;;19.53;69.31;101966.88;5092711;28;20362;-60
2022/07/22 07:51:34;;;;;;;3.42;1.20;;;;;;;19.65;66.44;101956.69;5092716;28;20032;-60
2022/07/22 07:53:59;;;;;;;4.00;1.30;;;;;;;19.73;68.64;101959.97;5092696;28;20066;-59
2022/07/22 07:56:25;;;;;;;5.78;1.30;;;;;;;19.96;68.66;101966.28;5093052;28;20040;-60
2022/07/22 07:58:50;;;;;;;2.97;1.40;;;;;;;20.05;66.37;101969.50;5092697;28;20731;-60
2022/07/22 08:01:15;;;;;;;2.80;1.42;;;;;;;20.05;67.24;101968.63;5092562;28;20042;-59
2022/07/22 08:03:40;;;;;;;4.00;1.60;;;;;;;20.01;69.12;101967.88;5099212;28;20093;-58
2022/07/22 08:06:06;;;;;;;3.75;1.73;;;;;;;19.98;67.47;101967.09;5096014;28;20063;-59
2022/07/22 08:08:31;;;;;;;3.15;1.48;;;;;;;19.77;68.69;101966.91;5093491;28;20059;-58
2022/07/22 08:10:56;;;;;;;4.78;2.00;;;;;;;19.66;70.64;101965.53;5105408;28;20625;-58
2022/07/22 08:13:22;;;;;;;4.05;1.90;;;;;;;19.60;71.35;101963.06;5095422;28;20028;-58
2022/07/22 08:15:47;;;;;;;5.85;2.00;;;;;;;19.47;73.23;101960.78;5103112;28;20035;-58
2022/07/22 08:18:12;;;;;;;5.80;2.00;;;;;;;19.30;73.12;101964.91;5093974;28;20062;-59
2022/07/22 08:20:38;;;;;;;3.80;1.95;;;;;;;19.16;72.70;101957.38;5090591;28;20453;-59
2022/07/22 08:23:04;;;;;;;4.90;2.17;;;;;;;19.10;72.62;101969.06;5093663;27;20035;-59
2022/07/22 08:25:29;;;;;;;3.92;1.98;;;;;;;19.07;71.39;101973.56;5091993;28;20032;-59
2022/07/22 08:27:55;;;;;;;5.28;2.20;;;;;;;19.06;73.71;101955.91;5092122;28;20669;-58
2022/07/22 08:30:22;;;;;;;3.30;2.05;;;;;;;19.23;72.15;101968.66;5092154;28;20028;-59
2022/07/22 08:32:48;;;;;;;4.90;2.10;;;;;;;19.36;71.54;101962.06;5091976;28;20060;-59
2022/07/22 08:35:13;;;;;;;4.40;2.40;;;;;;;19.48;71.10;101961.66;5091905;28;20094;-58
2022/07/22 08:37:39;;;;;;;3.53;1.98;;;;;;;19.57;68.81;101966.69;5091532;28;20039;-58
2022/07/22 08:40:07;;;;;;;4.53;2.28;;;;;;;19.65;69.57;101951.38;5091819;28;20055;-58
2022/07/22 08:42:36;;;;;;;4.22;2.13;;;;;;;19.83;66.58;101949.91;5091675;28;20034;-58
2022/07/22 08:45:01;;;;;;;3.05;2.20;;;;;;;19.87;67.60;101948.88;5091528;28;20086;-58
2022/07/22 08:47:27;;;;;;;2.92;2.10;;;;;;;20.14;68.61;101942.59;5074020;28;20067;-58
2022/07/22 08:49:52;;;;;;;4.22;1.90;;;;;;;20.16;66.68;101943.41;5091863;28;20055;-58
2022/07/22 08:52:17;;;;;;;7.55;1.80;;;;;;;20.11;65.86;101947.13;5091938;28;20054;-59
2022/07/22 08:54:42;;;;;;;4.20;1.88;;;;;;;20.03;67.61;101946.56;5091187;28;20063;-59
2022/07/22 08:57:08;;;;;;;4.65;2.00;;;;;;;19.93;68.13;101934.50;5091566;28;20038;-59
2022/07/22 08:59:47;;;;;;;3.42;2.03;;;;;;;19.99;68.26;101944.91;5091322;28;20036;-59
2022/07/22 09:02:12;;;;;;;4.93;1.90;;;;;;;20.05;67.61;101945.59;5095502;28;20389;-60
2022/07/22 09:04:59;;;;;;;4.37;1.60;;;;;;;20.01;69.44;101951.06;5091346;28;20101;-59
2022/07/22 09:07:36;;;;;;;3.30;1.80;;;;;;;20.04;68.61;101954.47;5091440;28;20274;-59
2022/07/22 09:10:05;;;;;;;4.63;1.83;;;;;;;20.06;68.73;101957.09;5091570;28;20032;-60
2022/07/22 09:12:32;;;;;;;6.00;1.98;;;;;;;20.08;66.14;101957.91;5091489;28;20032;-59
2022/07/22 09:14:59;;;;;;;3.85;1.98;;;;;;;20.13;65.57;101953.28;5091272;28;20036;-58
2022/07/22 09:17:37;;;;;;;4.22;2.00;;;;;;;20.22;67.44;101952.09;5091443;28;20056;-59
2022/07/22 09:20:17;;;;;;;3.78;1.80;;;;;;;20.24;67.08;101948.47;5091079;28;20515;-59
2022/07/22 09:22:44;;;;;;;2.90;1.80;;;;;;;20.37;66.36;101952.44;5091509;28;20039;-60
2022/07/22 09:25:33;;;;;;;2.20;1.67;;;;;;;20.44;65.91;101943.28;5093044;28;20028;-59
2022/07/22 09:28:07;;;;;;;3.58;1.83;;;;;;;20.66;65.88;101937.19;5095497;28;20119;-59
2022/07/22 09:30:53;;;;;;;2.75;2.10;;;;;;;20.82;66.00;101944.50;5095766;28;20039;-59
2022/07/22 09:33:20;;;;;;;4.20;1.95;;;;;;;20.70;65.59;101939.66;5095474;28;20131;-59
2022/07/22 09:35:48;;;;;;;4.15;1.80;;;;;;;20.63;65.52;101940.81;5095446;28;20498;-59
2022/07/22 09:38:16;;;;;;;6.22;2.30;;;;;;;20.65;63.87;101932.78;5095669;28;20081;-59
2022/07/22 09:40:46;;;;;;;4.47;2.33;;;;;;;20.57;65.22;101940.19;5095420;28;20301;-60
2022/07/22 09:43:15;;;;;;;5.13;2.53;;;;;;;20.49;65.36;101933.38;5095413;28;20088;-59
2022/07/22 09:45:57;;;;;;;3.03;2.00;;;;;;;20.53;64.77;101934.13;5094973;28;20032;-60
2022/07/22 09:48:23;;;;;;;3.55;2.33;;;;;;;20.79;63.27;101927.78;5095229;28;20046;-59
2022/07/22 09:50:50;;;;;;;4.55;2.30;;;;;;;21.05;62.88;101924.13;5095270;28;20096;-59
2022/07/22 09:53:18;;;;;;;3.47;2.25;;;;;;;21.23;60.96;101915.44;5095215;28;20373;-59
2022/07/22 09:55:44;;;;;;;5.15;2.70;;;;;;;21.36;60.38;101915.78;5095043;28;20040;-60
2022/07/22 09:58:09;;;;;;;3.90;2.00;;;;;;;21.62;63.45;101918.25;5095253;28;20506;-60
2022/07/22 10:00:36;;;;;;;3.00;2.10;;;;;;;21.78;62.13;101924.66;5095154;28;20546;-59
2022/07/22 10:03:05;;;;;;;5.57;2.10;;;;;;;21.84;58.91;101927.03;5095005;28;20074;-58
2022/07/22 10:05:38;;;;;;;3.95;2.33;;;;;;;21.84;58.51;101920.84;5095048;28;20032;-60
2022/07/22 10:08:04;;;;;;;7.00;2.10;;;;;;;21.89;56.79;101921.53;5095112;28;20773;-59
2022/07/22 10:10:32;;;;;;;5.72;2.20;;;;;;;22.01;57.05;101922.81;5094870;28;20047;-59
2022/07/22 10:12:58;;;;;;;4.85;2.28;;;;;;;22.19;60.22;101932.66;5094727;28;20046;-59
2022/07/22 10:15:26;;;;;;;4.85;2.20;;;;;;;22.32;57.21;101925.88;5094768;28;20040;-59
2022/07/22 10:17:54;;;;;;;5.60;2.58;;;;;;;22.30;57.73;101919.72;5094685;28;20031;-59
2022/07/22 10:20:23;;;;;;;5.68;2.45;;;;;;;22.09;56.36;101923.34;5094481;28;20064;-58
2022/07/22 10:22:49;;;;;;;4.32;2.40;;;;;;;22.09;57.14;101910.88;5094510;28;20024;-59
2022/07/22 10:25:15;;;;;;;3.95;2.90;;;;;;;22.04;55.95;101922.69;5094470;28;20059;-59
2022/07/22 10:27:57;;;;;;;5.90;2.63;;;;;;;22.34;58.98;101926.63;5094003;28;20040;-59
2022/07/22 10:30:31;;;;;;;4.30;2.83;;;;;;;22.19;56.41;101935.31;5094437;28;20089;-57
2022/07/22 10:33:14;;;;;;;5.75;2.60;;;;;;;22.10;58.34;101931.28;5094009;28;20066;-58
2022/07/22 10:35:56;;;;;;;6.15;2.58;;;;;;;22.01;60.32;101928.13;5104860;28;20115;-59
2022/07/22 10:38:22;;;;;;;5.15;3.00;;;;;;;21.79;59.10;101929.06;5111256;28;20059;-59
2022/07/22 10:40:58;;;;;;;4.55;3.17;;;;;;;21.66;60.92;101927.81;5114311;28;20058;-59
2022/07/22 10:43:29;;;;;;;6.20;3.05;;;;;;;21.47;59.90;101935.72;5110276;28;20332;-58
2022/07/22 10:46:06;;;;;;;5.65;2.80;;;;;;;21.23;61.39;101934.06;5094196;28;20411;-59
2022/07/22 10:48:37;;;;;;;6.35;2.70;;;;;;;21.14;62.17;101919.28;5094130;28;20028;-59
2022/07/22 10:51:21;;;;;;;4.85;3.15;;;;;;;21.13;60.53;101927.34;5101662;28;20127;-59
2022/07/22 10:53:57;;;;;;;8.73;3.30;;;;;;;21.50;62.26;101918.75;5094168;28;20344;-58
2022/07/22 10:56:35;;;;;;;4.65;3.33;;;;;;;21.58;61.39;101908.66;5093901;28;20036;-59
2022/07/22 10:59:12;;;;;;;6.70;3.03;;;;;;;21.57;58.42;101911.38;5093773;28;20135;-59
2022/07/22 11:01:40;;;;;;;4.50;2.90;;;;;;;21.74;57.48;101909.72;5093929;28;20112;-59
2022/07/22 11:04:11;;;;;;;7.03;2.80;;;;;;;22.05;57.44;101903.09;5094019;28;20038;-59
2022/07/22 11:06:36;;;;;;;6.97;2.83;;;;;;;22.43;56.96;101898.69;5093849;28;20046;-60
2022/07/22 11:09:07;;;;;;;6.57;2.83;;;;;;;22.44;55.19;101895.97;5093523;28;20040;-58
2022/07/22 11:11:41;;;;;;;7.30;3.43;;;;;;;22.51;57.61;101897.38;5093597;28;20097;-59
2022/07/22 11:14:19;;;;;;;5.45;2.83;;;;;;;22.47;57.05;101897.63;5093674;28;20541;-58